createdAt,value
2023-11-07T00:00:20.985Z,10.62
2023-11-07T00:00:53.532Z,10.61
2023-11-07T00:01:28.097Z,10.61
2023-11-07T00:02:00.777Z,10.60
2023-11-07T00:02:33.744Z,10.60
2023-11-07T00:03:06.384Z,10.59
2023-11-07T00:03:39.053Z,10.59
2023-11-07T00:04:12.042Z,10.58
2023-11-07T00:04:44.603Z,10.58
2023-11-07T00:05:17.164Z,10.57
2023-11-07T00:05:49.849Z,10.57
2023-11-07T00:06:22.541Z,10.56
2023-11-07T00:06:55.141Z,10.56
2023-11-07T00:07:27.629Z,10.56
2023-11-07T00:08:00.452Z,10.55
2023-11-07T00:08:32.944Z,10.54
2023-11-07T00:09:05.516Z,10.53
2023-11-07T00:09:38.058Z,10.53
2023-11-07T00:10:10.856Z,10.52
2023-11-07T00:10:43.549Z,10.52
2023-11-07T00:11:16.049Z,10.51
2023-11-07T00:11:48.626Z,10.51
2023-11-07T00:12:21.355Z,10.50
2023-11-07T00:12:53.838Z,10.49
2023-11-07T00:13:26.369Z,10.48
2023-11-07T00:13:58.903Z,10.47
2023-11-07T00:14:31.728Z,10.46
2023-11-07T00:15:04.700Z,10.45
2023-11-07T00:15:37.273Z,10.44
2023-11-07T00:16:11.842Z,10.44
2023-11-07T00:16:44.380Z,10.43
2023-11-07T00:17:16.958Z,10.41
2023-11-07T00:17:51.623Z,10.40
2023-11-07T00:18:24.374Z,10.39
2023-11-07T00:18:57.371Z,10.38
2023-11-07T00:19:29.927Z,10.37
2023-11-07T00:20:04.341Z,10.36
2023-11-07T00:20:38.011Z,10.35
2023-11-07T00:21:10.996Z,10.34
2023-11-07T00:21:44.491Z,10.33
2023-11-07T00:22:17.004Z,10.31
2023-11-07T00:22:49.550Z,10.30
2023-11-07T00:23:22.510Z,10.29
2023-11-07T00:23:55.089Z,10.28
2023-11-07T00:24:27.689Z,10.28
2023-11-07T00:25:00.233Z,10.27
2023-11-07T00:25:33.070Z,10.26
2023-11-07T00:26:05.912Z,10.25
2023-11-07T00:26:38.425Z,10.24
2023-11-07T00:27:11.242Z,10.23
2023-11-07T00:27:43.804Z,10.23
2023-11-07T00:28:16.362Z,10.22
2023-11-07T00:28:49.597Z,10.22
2023-11-07T00:29:24.177Z,10.21
2023-11-07T00:29:56.720Z,10.20
2023-11-07T00:30:29.210Z,10.20
2023-11-07T00:31:01.703Z,10.19
2023-11-07T00:31:34.667Z,10.18
2023-11-07T00:32:07.492Z,10.17
2023-11-07T00:32:41.109Z,10.16
2023-11-07T00:33:13.791Z,10.16
2023-11-07T00:33:46.531Z,10.15
2023-11-07T00:34:19.630Z,10.14
2023-11-07T00:34:52.187Z,10.14
2023-11-07T00:35:24.775Z,10.13
2023-11-07T00:35:57.448Z,10.12
2023-11-07T00:36:29.976Z,10.11
2023-11-07T00:37:02.484Z,10.10
2023-11-07T00:37:35.293Z,10.08
2023-11-07T00:38:07.925Z,10.07
2023-11-07T00:38:40.738Z,10.06
2023-11-07T00:39:13.319Z,10.05
2023-11-07T00:39:45.820Z,10.04
2023-11-07T00:40:18.370Z,10.03
2023-11-07T00:40:50.889Z,10.03
2023-11-07T00:41:24.777Z,10.01
2023-11-07T00:41:57.901Z,10.00
2023-11-07T00:42:30.458Z,10.00
2023-11-07T00:43:03.916Z,9.99
2023-11-07T00:43:36.413Z,9.98
2023-11-07T00:44:08.927Z,9.98
2023-11-07T00:44:41.563Z,9.98
2023-11-07T00:45:14.111Z,9.97
2023-11-07T00:45:46.635Z,9.97
2023-11-07T00:46:19.841Z,9.97
2023-11-07T00:46:52.370Z,9.97
2023-11-07T00:47:24.880Z,9.96
2023-11-07T00:47:58.182Z,9.96
2023-11-07T00:48:30.971Z,9.95
2023-11-07T00:49:03.804Z,9.95
2023-11-07T00:49:36.395Z,9.95
2023-11-07T00:50:11.835Z,9.95
2023-11-07T00:50:44.929Z,9.95
2023-11-07T00:51:17.491Z,9.94
2023-11-07T00:51:50.006Z,9.94
2023-11-07T00:52:22.912Z,9.94
2023-11-07T00:52:55.401Z,9.93
2023-11-07T00:53:27.947Z,9.93
2023-11-07T00:54:00.588Z,9.93
2023-11-07T00:54:33.101Z,9.93
2023-11-07T00:55:08.605Z,9.92
2023-11-07T00:55:41.118Z,9.92
2023-11-07T00:56:13.637Z,9.92
2023-11-07T00:56:46.228Z,9.92
2023-11-07T00:57:18.763Z,9.92
2023-11-07T00:57:51.317Z,9.92
2023-11-07T00:58:23.939Z,9.92
2023-11-07T00:58:56.432Z,9.92
2023-11-07T00:59:28.920Z,9.92
2023-11-07T01:00:01.850Z,9.93
2023-11-07T01:00:37.084Z,9.93
2023-11-07T01:01:10.190Z,9.93
2023-11-07T01:01:42.707Z,9.93
2023-11-07T01:02:15.201Z,9.93
2023-11-07T01:02:47.872Z,9.93
2023-11-07T01:03:20.485Z,9.93
2023-11-07T01:03:53.282Z,9.93
2023-11-07T01:04:25.923Z,9.93
2023-11-07T01:04:58.512Z,9.94
2023-11-07T01:05:31.327Z,9.94
2023-11-07T01:06:04.514Z,9.94
2023-11-07T01:06:37.173Z,9.94
2023-11-07T01:07:10.092Z,9.94
2023-11-07T01:07:42.626Z,9.94
2023-11-07T01:08:15.619Z,9.95
2023-11-07T01:08:48.195Z,9.96
2023-11-07T01:09:20.736Z,9.96
2023-11-07T01:09:53.227Z,9.97
2023-11-07T01:10:25.751Z,9.98
2023-11-07T01:10:58.246Z,9.98
2023-11-07T01:11:31.065Z,9.98
2023-11-07T01:12:04.447Z,9.98
2023-11-07T01:12:36.948Z,9.99
2023-11-07T01:13:09.423Z,9.99
2023-11-07T01:13:41.909Z,9.99
2023-11-07T01:14:15.116Z,10.00
2023-11-07T01:14:47.658Z,10.01
2023-11-07T01:15:20.796Z,10.02
2023-11-07T01:15:53.634Z,10.03
2023-11-07T01:16:26.567Z,10.04
2023-11-07T01:16:59.303Z,10.05
2023-11-07T01:17:32.040Z,10.06
2023-11-07T01:18:07.597Z,10.06
2023-11-07T01:18:40.541Z,10.07
2023-11-07T01:19:13.200Z,10.08
2023-11-07T01:19:45.942Z,10.09
2023-11-07T01:20:18.432Z,10.09
2023-11-07T01:20:51.042Z,10.09
2023-11-07T01:21:23.536Z,10.09
2023-11-07T01:21:56.057Z,10.10
2023-11-07T01:22:29.079Z,10.10
2023-11-07T01:23:01.970Z,10.10
2023-11-07T01:23:34.552Z,10.10
2023-11-07T01:24:48.175Z,10.10
2023-11-07T01:25:20.754Z,10.10
2023-11-07T01:25:53.269Z,10.10
2023-11-07T01:26:25.855Z,10.10
2023-11-07T01:26:59.101Z,10.10
2023-11-07T01:27:32.698Z,10.09
2023-11-07T01:28:05.390Z,10.09
2023-11-07T01:28:37.915Z,10.09
2023-11-07T01:29:10.460Z,10.09
2023-11-07T01:29:43.022Z,10.09
2023-11-07T01:30:15.692Z,10.09
2023-11-07T01:30:51.000Z,10.09
2023-11-07T01:31:23.612Z,10.09
2023-11-07T01:31:56.649Z,10.10
2023-11-07T01:32:29.746Z,10.10
2023-11-07T01:33:02.372Z,10.11
2023-11-07T01:33:36.398Z,10.12
2023-11-07T01:34:09.944Z,10.13
2023-11-07T01:34:42.599Z,10.13
2023-11-07T01:35:15.105Z,10.14
2023-11-07T01:35:47.665Z,10.15
2023-11-07T01:36:20.193Z,10.16
2023-11-07T01:36:52.728Z,10.18
2023-11-07T01:37:25.232Z,10.19
2023-11-07T01:37:57.773Z,10.20
2023-11-07T01:38:30.461Z,10.21
2023-11-07T01:39:04.077Z,10.22
2023-11-07T01:39:36.612Z,10.23
2023-11-07T01:40:13.667Z,10.24
2023-11-07T01:40:46.181Z,10.27
2023-11-07T01:41:18.780Z,10.28
2023-11-07T01:41:51.484Z,10.29
2023-11-07T01:42:24.017Z,10.31
2023-11-07T01:42:56.900Z,10.31
2023-11-07T01:43:29.921Z,10.32
2023-11-07T01:44:02.404Z,10.34
2023-11-07T01:44:35.095Z,10.35
2023-11-07T01:45:08.416Z,10.36
2023-11-07T01:45:42.134Z,10.37
2023-11-07T01:46:15.549Z,10.38
2023-11-07T01:46:48.051Z,10.39
2023-11-07T01:47:24.509Z,10.40
2023-11-07T01:47:57.165Z,10.41
2023-11-07T01:48:30.174Z,10.42
2023-11-07T01:49:02.957Z,10.43
2023-11-07T01:49:35.522Z,10.44
2023-11-07T01:50:11.734Z,10.45
2023-11-07T01:50:44.278Z,10.47
2023-11-07T01:51:16.923Z,10.47
2023-11-07T01:51:50.664Z,10.49
2023-11-07T01:52:23.518Z,10.50
2023-11-07T01:52:56.964Z,10.51
2023-11-07T01:53:30.704Z,10.53
2023-11-07T01:54:05.184Z,10.53
2023-11-07T01:54:38.954Z,10.54
2023-11-07T01:55:17.426Z,10.56
2023-11-07T01:55:50.015Z,10.57
2023-11-07T01:56:24.638Z,10.59
2023-11-07T01:56:57.305Z,10.59
2023-11-07T01:57:29.862Z,10.60
2023-11-07T01:58:03.795Z,10.61
2023-11-07T01:58:37.029Z,10.62
2023-11-07T01:59:09.603Z,10.63
2023-11-07T01:59:42.784Z,10.64
2023-11-07T02:00:16.991Z,10.65
2023-11-07T02:00:51.135Z,10.66
2023-11-07T02:01:25.818Z,10.67
2023-11-07T02:02:01.550Z,10.68
2023-11-07T02:02:34.405Z,10.69
2023-11-07T02:03:08.205Z,10.70
2023-11-07T02:03:40.941Z,10.71
2023-11-07T02:04:14.255Z,10.71
2023-11-07T02:04:48.463Z,10.72
2023-11-07T02:05:21.336Z,10.73
2023-11-07T02:05:53.914Z,10.74
2023-11-07T02:06:26.749Z,10.75
2023-11-07T02:06:59.284Z,10.75
2023-11-07T02:07:32.162Z,10.76
2023-11-07T02:08:06.743Z,10.77
2023-11-07T02:08:39.252Z,10.78
2023-11-07T02:09:12.312Z,10.79
2023-11-07T02:09:45.072Z,10.80
2023-11-07T02:10:18.664Z,10.80
2023-11-07T02:10:51.242Z,10.81
2023-11-07T02:11:25.859Z,10.82
2023-11-07T02:11:58.446Z,10.83
2023-11-07T02:12:30.985Z,10.84
2023-11-07T02:13:03.527Z,10.85
2023-11-07T02:13:36.040Z,10.86
2023-11-07T02:14:10.320Z,10.86
2023-11-07T02:14:43.031Z,10.87
2023-11-07T02:15:28.311Z,10.88
2023-11-07T02:16:00.891Z,10.88
2023-11-07T02:16:33.395Z,10.88
2023-11-07T02:17:06.040Z,10.89
2023-11-07T02:17:38.632Z,10.90
2023-11-07T02:18:11.450Z,10.90
2023-11-07T02:18:44.270Z,10.91
2023-11-07T02:19:16.889Z,10.92
2023-11-07T02:19:49.416Z,10.92
2023-11-07T02:20:22.189Z,10.93
2023-11-07T02:20:54.795Z,10.93
2023-11-07T02:21:30.035Z,10.94
2023-11-07T02:22:02.685Z,10.94
2023-11-07T02:22:35.433Z,10.95
2023-11-07T02:23:18.532Z,10.95
2023-11-07T02:23:51.037Z,10.96
2023-11-07T02:24:23.632Z,10.96
2023-11-07T02:24:56.190Z,10.96
2023-11-07T02:25:28.685Z,10.97
2023-11-07T02:26:01.257Z,10.97
2023-11-07T02:26:33.914Z,10.97
2023-11-07T02:27:07.085Z,10.98
2023-11-07T02:27:39.673Z,10.98
2023-11-07T02:28:12.333Z,10.98
2023-11-07T02:28:47.690Z,10.97
2023-11-07T02:29:20.223Z,10.97
2023-11-07T02:29:52.795Z,10.96
2023-11-07T02:30:26.655Z,10.95
2023-11-07T02:30:59.270Z,10.94
2023-11-07T02:31:31.790Z,10.94
2023-11-07T02:32:04.615Z,10.93
2023-11-07T02:32:37.238Z,10.93
2023-11-07T02:33:09.914Z,10.92
2023-11-07T02:33:42.670Z,10.92
2023-11-07T02:34:15.386Z,10.92
2023-11-07T02:34:47.908Z,10.92
2023-11-07T02:35:20.450Z,10.91
2023-11-07T02:35:52.971Z,10.90
2023-11-07T02:36:25.545Z,10.90
2023-11-07T02:36:58.082Z,10.90
2023-11-07T02:37:30.574Z,10.89
2023-11-07T02:38:04.088Z,10.88
2023-11-07T02:38:36.807Z,10.87
2023-11-07T02:39:13.637Z,10.86
2023-11-07T02:39:46.178Z,10.84
2023-11-07T02:40:18.673Z,10.82
2023-11-07T02:40:52.089Z,10.81
2023-11-07T02:41:24.576Z,10.80
2023-11-07T02:41:57.063Z,10.78
2023-11-07T02:42:30.092Z,10.77
2023-11-07T02:43:02.856Z,10.77
2023-11-07T02:43:35.345Z,10.76
2023-11-07T02:44:07.879Z,10.75
2023-11-07T02:44:40.409Z,10.74
2023-11-07T02:45:13.292Z,10.73
2023-11-07T02:45:45.848Z,10.73
2023-11-07T02:46:18.511Z,10.72
2023-11-07T02:46:52.991Z,10.71
2023-11-07T02:47:26.569Z,10.70
2023-11-07T02:47:59.288Z,10.69
2023-11-07T02:48:32.018Z,10.67
2023-11-07T02:49:06.587Z,10.66
2023-11-07T02:49:39.459Z,10.65
2023-11-07T02:50:12.244Z,10.65
2023-11-07T02:50:45.982Z,10.64
2023-11-07T02:51:19.075Z,10.64
2023-11-07T02:51:51.608Z,10.63
2023-11-07T02:52:24.087Z,10.62
2023-11-07T02:52:56.575Z,10.61
2023-11-07T02:53:29.392Z,10.60
2023-11-07T02:54:02.327Z,10.60
2023-11-07T02:54:34.917Z,10.59
2023-11-07T02:55:08.736Z,10.58
2023-11-07T02:55:41.515Z,10.57
2023-11-07T02:56:14.520Z,10.56
2023-11-07T02:56:47.093Z,10.55
2023-11-07T02:57:19.600Z,10.55
2023-11-07T02:57:52.120Z,10.54
2023-11-07T02:58:25.289Z,10.53
2023-11-07T02:59:00.180Z,10.53
2023-11-07T02:59:32.989Z,10.52
2023-11-07T03:00:06.279Z,10.51
2023-11-07T03:00:39.302Z,10.50
2023-11-07T03:01:17.168Z,10.50
2023-11-07T03:01:52.541Z,10.49
2023-11-07T03:02:25.825Z,10.49
2023-11-07T03:02:59.633Z,10.48
2023-11-07T03:03:33.452Z,10.47
2023-11-07T03:04:06.123Z,10.47
2023-11-07T03:04:39.642Z,10.46
2023-11-07T03:05:12.344Z,10.45
2023-11-07T03:05:45.118Z,10.45
2023-11-07T03:06:19.014Z,10.44
2023-11-07T03:06:51.684Z,10.43
2023-11-07T03:07:24.833Z,10.43
2023-11-07T03:07:58.614Z,10.42
2023-11-07T03:08:31.150Z,10.41
2023-11-07T03:09:03.844Z,10.40
2023-11-07T03:09:36.611Z,10.39
2023-11-07T03:10:09.614Z,10.38
2023-11-07T03:10:42.175Z,10.38
2023-11-07T03:11:14.655Z,10.37
2023-11-07T03:11:47.170Z,10.36
2023-11-07T03:12:20.282Z,10.36
2023-11-07T03:12:52.793Z,10.35
2023-11-07T03:13:25.319Z,10.35
2023-11-07T03:13:57.860Z,10.34
2023-11-07T03:14:30.624Z,10.34
2023-11-07T03:15:03.620Z,10.34
2023-11-07T03:15:36.354Z,10.33
2023-11-07T03:16:09.299Z,10.33
2023-11-07T03:16:42.301Z,10.32
2023-11-07T03:17:14.851Z,10.31
2023-11-07T03:17:48.302Z,10.30
2023-11-07T03:18:21.037Z,10.28
2023-11-07T03:18:53.718Z,10.27
2023-11-07T03:19:26.314Z,10.26
2023-11-07T03:19:58.848Z,10.25
2023-11-07T03:20:31.455Z,10.24
2023-11-07T03:21:08.349Z,10.23
2023-11-07T03:21:41.160Z,10.22
2023-11-07T03:22:13.806Z,10.21
2023-11-07T03:22:46.378Z,10.20
2023-11-07T03:23:19.112Z,10.19
2023-11-07T03:23:51.675Z,10.18
2023-11-07T03:24:24.250Z,10.17
2023-11-07T03:24:56.768Z,10.16
2023-11-07T03:25:29.916Z,10.15
2023-11-07T03:26:03.989Z,10.14
2023-11-07T03:26:36.738Z,10.13
2023-11-07T03:27:09.288Z,10.12
2023-11-07T03:27:41.846Z,10.11
2023-11-07T03:28:14.358Z,10.10
2023-11-07T03:28:47.325Z,10.08
2023-11-07T03:29:19.867Z,10.07
2023-11-07T03:29:52.433Z,10.06
2023-11-07T03:30:24.943Z,10.05
2023-11-07T03:30:57.447Z,10.04
2023-11-07T03:31:30.278Z,10.03
2023-11-07T03:32:02.835Z,10.02
2023-11-07T03:32:35.868Z,10.00
2023-11-07T03:33:08.655Z,9.98
2023-11-07T03:33:41.372Z,9.97
2023-11-07T03:34:13.944Z,9.96
2023-11-07T03:34:46.503Z,9.96
2023-11-07T03:35:19.139Z,9.94
2023-11-07T03:35:51.757Z,9.93
2023-11-07T03:36:24.295Z,9.92
2023-11-07T03:36:56.849Z,9.91
2023-11-07T03:37:29.375Z,9.90
2023-11-07T03:38:01.861Z,9.89
2023-11-07T03:38:34.400Z,9.88
2023-11-07T03:39:07.732Z,9.88
2023-11-07T03:39:40.239Z,9.87
2023-11-07T03:40:13.607Z,9.87
2023-11-07T03:40:46.096Z,9.86
2023-11-07T03:41:18.609Z,9.85
2023-11-07T03:41:51.135Z,9.85
2023-11-07T03:42:23.972Z,9.85
2023-11-07T03:42:56.577Z,9.84
2023-11-07T03:43:29.088Z,9.83
2023-11-07T03:44:01.601Z,9.82
2023-11-07T03:44:36.169Z,9.82
2023-11-07T03:45:08.989Z,9.81
2023-11-07T03:45:41.521Z,9.81
2023-11-07T03:46:14.018Z,9.80
2023-11-07T03:46:46.519Z,9.80
2023-11-07T03:47:19.223Z,9.79
2023-11-07T03:47:51.873Z,9.79
2023-11-07T03:48:24.571Z,9.78
2023-11-07T03:48:57.585Z,9.78
2023-11-07T03:49:30.151Z,9.77
2023-11-07T03:50:03.788Z,9.77
2023-11-07T03:50:36.902Z,9.77
2023-11-07T03:51:09.477Z,9.76
2023-11-07T03:51:42.033Z,9.76
2023-11-07T03:52:15.258Z,9.76
2023-11-07T03:52:48.157Z,9.76
2023-11-07T03:53:21.340Z,9.75
2023-11-07T03:53:55.122Z,9.75
2023-11-07T03:54:27.716Z,9.75
2023-11-07T03:55:00.236Z,9.74
2023-11-07T03:55:33.268Z,9.74
2023-11-07T03:56:06.571Z,9.74
2023-11-07T03:56:39.185Z,9.73
2023-11-07T03:57:11.772Z,9.73
2023-11-07T03:57:44.307Z,9.73
2023-11-07T03:58:16.801Z,9.72
2023-11-07T03:58:49.363Z,9.72
2023-11-07T03:59:21.840Z,9.72
2023-11-07T03:59:54.401Z,9.71
2023-11-07T04:00:26.918Z,9.70
2023-11-07T04:00:59.424Z,9.70
2023-11-07T04:01:36.648Z,9.69
2023-11-07T04:02:09.180Z,9.68
2023-11-07T04:02:41.746Z,9.68
2023-11-07T04:03:14.378Z,9.67
2023-11-07T04:03:47.497Z,9.66
2023-11-07T04:04:21.524Z,9.65
2023-11-07T04:04:54.473Z,9.64
2023-11-07T04:05:27.273Z,9.63
2023-11-07T04:05:59.893Z,9.61
2023-11-07T04:06:32.591Z,9.60
2023-11-07T04:07:05.689Z,9.59
2023-11-07T04:07:38.167Z,9.58
2023-11-07T04:08:10.694Z,9.57
2023-11-07T04:08:43.244Z,9.56
2023-11-07T04:09:15.737Z,9.55
2023-11-07T04:09:48.263Z,9.54
2023-11-07T04:10:20.978Z,9.54
2023-11-07T04:10:53.553Z,9.54
2023-11-07T04:11:26.700Z,9.53
2023-11-07T04:11:59.250Z,9.53
2023-11-07T04:12:33.473Z,9.52
2023-11-07T04:13:06.651Z,9.51
2023-11-07T04:13:39.159Z,9.50
2023-11-07T04:14:11.948Z,9.50
2023-11-07T04:14:46.496Z,9.49
2023-11-07T04:15:19.551Z,9.49
2023-11-07T04:15:52.035Z,9.48
2023-11-07T04:16:24.572Z,9.48
2023-11-07T04:16:59.186Z,9.48
2023-11-07T04:17:31.808Z,9.47
2023-11-07T04:18:04.878Z,9.47
2023-11-07T04:18:37.617Z,9.47
2023-11-07T04:19:10.382Z,9.47
2023-11-07T04:19:43.737Z,9.47
2023-11-07T04:20:17.666Z,9.47
2023-11-07T04:20:51.168Z,9.46
2023-11-07T04:21:23.683Z,9.46
2023-11-07T04:21:56.212Z,9.46
2023-11-07T04:22:29.435Z,9.46
2023-11-07T04:23:01.946Z,9.46
2023-11-07T04:23:34.909Z,9.46
2023-11-07T04:24:07.791Z,9.47
2023-11-07T04:24:40.329Z,9.47
2023-11-07T04:25:12.848Z,9.47
2023-11-07T04:25:45.353Z,9.47
2023-11-07T04:26:19.119Z,9.48
2023-11-07T04:26:51.677Z,9.48
2023-11-07T04:27:24.231Z,9.48
2023-11-07T04:27:58.054Z,9.48
2023-11-07T04:28:32.304Z,9.48
2023-11-07T04:29:05.546Z,9.48
2023-11-07T04:29:38.516Z,9.48
2023-11-07T04:30:11.966Z,9.48
2023-11-07T04:30:44.866Z,9.48
2023-11-07T04:31:17.981Z,9.48
2023-11-07T04:31:51.108Z,9.49
2023-11-07T04:32:23.615Z,9.49
2023-11-07T04:32:56.390Z,9.49
2023-11-07T04:33:29.056Z,9.49
2023-11-07T04:34:02.196Z,9.50
2023-11-07T04:34:35.735Z,9.50
2023-11-07T04:35:11.168Z,9.51
2023-11-07T04:35:43.765Z,9.52
2023-11-07T04:36:17.780Z,9.52
2023-11-07T04:36:53.204Z,9.52
2023-11-07T04:37:25.731Z,9.52
2023-11-07T04:37:58.562Z,9.52
2023-11-07T04:38:31.646Z,9.52
2023-11-07T04:39:04.312Z,9.53
2023-11-07T04:39:36.871Z,9.54
2023-11-07T04:40:10.196Z,9.55
2023-11-07T04:40:42.724Z,9.55
2023-11-07T04:41:15.255Z,9.56
2023-11-07T04:41:47.799Z,9.56
2023-11-07T04:42:20.331Z,9.56
2023-11-07T04:42:52.860Z,9.57
2023-11-07T04:43:27.223Z,9.57
2023-11-07T04:44:00.618Z,9.58
2023-11-07T04:44:33.100Z,9.59
2023-11-07T04:45:08.591Z,9.60
2023-11-07T04:45:41.177Z,9.61
2023-11-07T04:46:14.351Z,9.63
2023-11-07T04:46:48.484Z,9.64
2023-11-07T04:47:21.585Z,9.65
2023-11-07T04:47:54.970Z,9.67
2023-11-07T04:48:28.258Z,9.69
2023-11-07T04:49:01.936Z,9.70
2023-11-07T04:49:35.183Z,9.71
2023-11-07T04:50:09.386Z,9.72
2023-11-07T04:50:41.911Z,9.73
2023-11-07T04:51:18.236Z,9.75
2023-11-07T04:51:50.923Z,9.77
2023-11-07T04:52:23.865Z,9.78
2023-11-07T04:52:56.420Z,9.79
2023-11-07T04:53:29.427Z,9.80
2023-11-07T04:54:02.691Z,9.81
2023-11-07T04:54:35.239Z,9.82
2023-11-07T04:55:08.193Z,9.84
2023-11-07T04:55:40.718Z,9.85
2023-11-07T04:56:13.212Z,9.85
2023-11-07T04:56:45.808Z,9.86
2023-11-07T04:57:18.398Z,9.88
2023-11-07T04:57:53.955Z,9.89
2023-11-07T04:58:28.176Z,9.90
2023-11-07T04:59:00.688Z,9.91
2023-11-07T04:59:34.184Z,9.92
2023-11-07T05:00:09.499Z,9.93
2023-11-07T05:00:42.087Z,9.93
2023-11-07T05:01:14.634Z,9.94
2023-11-07T05:01:49.463Z,9.94
2023-11-07T05:02:21.986Z,9.94
2023-11-07T05:02:54.716Z,9.95
2023-11-07T05:03:33.362Z,9.95
2023-11-07T05:04:11.448Z,9.95
2023-11-07T05:04:47.113Z,9.95
2023-11-07T05:05:19.776Z,9.96
2023-11-07T05:05:52.436Z,9.96
2023-11-07T05:06:26.542Z,9.96
2023-11-07T05:07:00.746Z,9.97
2023-11-07T05:07:33.255Z,9.97
2023-11-07T05:08:06.190Z,9.97
2023-11-07T05:08:39.637Z,9.98
2023-11-07T05:09:13.835Z,9.98
2023-11-07T05:09:46.468Z,9.98
2023-11-07T05:10:19.223Z,9.98
2023-11-07T05:10:51.755Z,9.98
2023-11-07T05:11:24.335Z,9.98
2023-11-07T05:11:58.415Z,9.98
2023-11-07T05:12:33.931Z,9.98
2023-11-07T05:13:07.834Z,9.98
2023-11-07T05:13:40.348Z,9.98
2023-11-07T05:14:12.859Z,9.98
2023-11-07T05:14:45.383Z,9.98
2023-11-07T05:15:18.386Z,9.98
2023-11-07T05:15:51.336Z,9.98
2023-11-07T05:16:23.873Z,9.98
2023-11-07T05:16:56.423Z,9.98
2023-11-07T05:17:28.918Z,9.97
2023-11-07T05:18:01.577Z,9.96
2023-11-07T05:18:34.412Z,9.96
2023-11-07T05:19:11.082Z,9.95
2023-11-07T05:19:44.255Z,9.95
2023-11-07T05:20:16.793Z,9.95
2023-11-07T05:20:49.841Z,9.94
2023-11-07T05:21:22.795Z,9.94
2023-11-07T05:21:55.730Z,9.93
2023-11-07T05:22:28.211Z,9.93
2023-11-07T05:23:00.692Z,9.92
2023-11-07T05:23:33.192Z,9.91
2023-11-07T05:24:06.247Z,9.91
2023-11-07T05:24:38.824Z,9.90
2023-11-07T05:25:11.315Z,9.89
2023-11-07T05:25:44.240Z,9.88
2023-11-07T05:26:16.769Z,9.88
2023-11-07T05:26:49.340Z,9.87
2023-11-07T05:27:21.858Z,9.86
2023-11-07T05:27:54.553Z,9.86
2023-11-07T05:28:27.103Z,9.85
2023-11-07T05:29:00.798Z,9.84
2023-11-07T05:29:33.358Z,9.83
2023-11-07T05:30:06.408Z,9.82
2023-11-07T05:30:39.449Z,9.82
2023-11-07T05:31:12.655Z,9.81
2023-11-07T05:31:48.024Z,9.80
2023-11-07T05:32:20.629Z,9.79
2023-11-07T05:32:53.246Z,9.78
2023-11-07T05:33:25.943Z,9.77
2023-11-07T05:33:58.672Z,9.77
2023-11-07T05:34:31.448Z,9.76
2023-11-07T05:35:06.246Z,9.75
2023-11-07T05:35:38.730Z,9.74
2023-11-07T05:36:11.383Z,9.72
2023-11-07T05:36:43.923Z,9.72
2023-11-07T05:37:17.867Z,9.70
2023-11-07T05:37:50.948Z,9.69
2023-11-07T05:38:23.568Z,9.68
2023-11-07T05:38:57.124Z,9.67
2023-11-07T05:39:29.774Z,9.66
2023-11-07T05:40:02.727Z,9.65
2023-11-07T05:40:35.226Z,9.64
2023-11-07T05:41:07.758Z,9.63
2023-11-07T05:41:40.297Z,9.62
2023-11-07T05:42:12.914Z,9.62
2023-11-07T05:42:45.526Z,9.61
2023-11-07T05:43:19.787Z,9.60
2023-11-07T05:43:53.580Z,9.59
2023-11-07T05:44:26.100Z,9.58
2023-11-07T05:45:00.595Z,9.58
2023-11-07T05:45:33.746Z,9.57
2023-11-07T05:46:07.065Z,9.57
2023-11-07T05:46:39.589Z,9.57
2023-11-07T05:47:12.148Z,9.56
2023-11-07T05:47:45.592Z,9.56
2023-11-07T05:48:18.555Z,9.55
2023-11-07T05:48:54.026Z,9.55
2023-11-07T05:49:26.644Z,9.54
2023-11-07T05:49:59.639Z,9.53
2023-11-07T05:50:32.250Z,9.53
2023-11-07T05:51:04.977Z,9.53
2023-11-07T05:51:39.352Z,9.52
2023-11-07T05:52:11.846Z,9.52
2023-11-07T05:52:45.493Z,9.52
2023-11-07T05:53:19.235Z,9.52
2023-11-07T05:53:51.811Z,9.52
2023-11-07T05:54:24.505Z,9.52
2023-11-07T05:54:57.015Z,9.52
2023-11-07T05:55:29.540Z,9.52
2023-11-07T05:56:02.866Z,9.52
2023-11-07T05:56:35.418Z,9.52
2023-11-07T05:57:07.983Z,9.53
2023-11-07T05:57:40.631Z,9.53
2023-11-07T05:58:13.175Z,9.53
2023-11-07T05:58:48.881Z,9.54
2023-11-07T05:59:22.160Z,9.54
2023-11-07T05:59:54.680Z,9.54
2023-11-07T06:00:27.442Z,9.55
2023-11-07T06:01:00.029Z,9.55
2023-11-07T06:01:32.521Z,9.56
2023-11-07T06:02:05.291Z,9.56
2023-11-07T06:02:38.566Z,9.56
2023-11-07T06:03:14.710Z,9.56
2023-11-07T06:03:47.503Z,9.57
2023-11-07T06:04:37.456Z,9.57
2023-11-07T06:05:10.480Z,9.57
2023-11-07T06:05:45.573Z,9.58
2023-11-07T06:06:18.536Z,9.59
2023-11-07T06:06:52.729Z,9.59
2023-11-07T06:07:25.563Z,9.60
2023-11-07T06:07:59.076Z,9.60
2023-11-07T06:08:31.692Z,9.60
2023-11-07T06:09:04.773Z,9.61
2023-11-07T06:09:37.406Z,9.61
2023-11-07T06:10:10.079Z,9.61
2023-11-07T06:10:42.584Z,9.62
2023-11-07T06:11:16.855Z,9.63
2023-11-07T06:11:49.375Z,9.63
2023-11-07T06:12:21.880Z,9.64
2023-11-07T06:12:54.403Z,9.64
2023-11-07T06:13:26.897Z,9.64
2023-11-07T06:13:59.701Z,9.64
2023-11-07T06:14:32.545Z,9.64
2023-11-07T06:15:05.460Z,9.64
2023-11-07T06:15:39.108Z,9.64
2023-11-07T06:16:11.655Z,9.64
2023-11-07T06:16:44.176Z,9.64
2023-11-07T06:17:18.824Z,9.65
2023-11-07T06:17:51.677Z,9.65
2023-11-07T06:18:25.727Z,9.65
2023-11-07T06:18:58.669Z,9.65
2023-11-07T06:19:31.289Z,9.65
2023-11-07T06:20:04.557Z,9.66
2023-11-07T06:20:37.091Z,9.66
2023-11-07T06:21:11.806Z,9.67
2023-11-07T06:21:44.330Z,9.67
2023-11-07T06:22:17.273Z,9.68
2023-11-07T06:22:49.943Z,9.69
2023-11-07T06:23:24.175Z,9.69
2023-11-07T06:23:56.711Z,9.70
2023-11-07T06:24:29.227Z,9.71
2023-11-07T06:25:02.676Z,9.71
2023-11-07T06:25:35.768Z,9.72
2023-11-07T06:26:08.481Z,9.72
2023-11-07T06:26:41.001Z,9.73
2023-11-07T06:27:13.536Z,9.73
2023-11-07T06:27:46.340Z,9.73
2023-11-07T06:28:18.835Z,9.74
2023-11-07T06:28:51.351Z,9.74
2023-11-07T06:29:23.877Z,9.76
2023-11-07T06:29:56.502Z,9.76
2023-11-07T06:30:31.516Z,9.76
2023-11-07T06:31:04.881Z,9.77
2023-11-07T06:31:37.406Z,9.78
2023-11-07T06:32:10.843Z,9.79
2023-11-07T06:32:43.511Z,9.80
2023-11-07T06:33:16.146Z,9.81
2023-11-07T06:33:48.748Z,9.81
2023-11-07T06:34:21.300Z,9.82
2023-11-07T06:34:54.218Z,9.83
2023-11-07T06:35:27.558Z,9.84
2023-11-07T06:36:00.352Z,9.84
2023-11-07T06:36:33.298Z,9.85
2023-11-07T06:37:05.869Z,9.85
2023-11-07T06:37:38.520Z,9.86
2023-11-07T06:38:11.501Z,9.88
2023-11-07T06:38:44.080Z,9.90
2023-11-07T06:39:19.697Z,9.94
2023-11-07T06:39:53.313Z,9.97
2023-11-07T06:40:25.820Z,10.01
2023-11-07T06:41:01.864Z,10.04
2023-11-07T06:41:35.463Z,10.09
2023-11-07T06:42:08.990Z,10.15
2023-11-07T06:42:45.466Z,10.21
2023-11-07T06:43:18.331Z,10.26
2023-11-07T06:43:52.260Z,10.30
2023-11-07T06:44:27.465Z,10.33
2023-11-07T06:45:00.629Z,10.38
2023-11-07T06:45:33.250Z,10.42
2023-11-07T06:46:06.090Z,10.47
2023-11-07T06:46:42.847Z,10.51
2023-11-07T06:47:15.487Z,10.57
2023-11-07T06:47:48.627Z,10.61
2023-11-07T06:48:21.472Z,10.65
2023-11-07T06:48:56.922Z,10.69
2023-11-07T06:49:32.218Z,10.72
2023-11-07T06:50:05.077Z,10.75
2023-11-07T06:50:37.664Z,10.79
2023-11-07T06:51:13.612Z,10.81
2023-11-07T06:51:46.203Z,10.84
2023-11-07T06:52:18.797Z,10.85
2023-11-07T06:52:53.234Z,10.87
2023-11-07T06:53:25.833Z,10.88
2023-11-07T06:54:01.157Z,10.90
2023-11-07T06:54:34.266Z,10.91
2023-11-07T06:55:07.520Z,10.93
2023-11-07T06:55:41.306Z,10.94
2023-11-07T06:56:16.537Z,10.95
2023-11-07T06:56:52.276Z,10.95
2023-11-07T06:57:25.098Z,10.96
2023-11-07T06:57:57.748Z,10.97
2023-11-07T06:58:30.466Z,10.98
2023-11-07T06:59:03.010Z,10.98
2023-11-07T06:59:35.528Z,10.99
2023-11-07T07:00:10.193Z,10.99
2023-11-07T07:00:43.850Z,10.99
2023-11-07T07:01:16.490Z,11.00
2023-11-07T07:01:49.027Z,11.00
2023-11-07T07:02:22.078Z,11.01
2023-11-07T07:02:58.701Z,11.01
2023-11-07T07:03:31.763Z,11.01
2023-11-07T07:04:04.585Z,11.01
2023-11-07T07:04:37.184Z,11.00
2023-11-07T07:05:14.732Z,11.00
2023-11-07T07:05:47.796Z,10.99
2023-11-07T07:06:22.341Z,10.99
2023-11-07T07:06:58.250Z,11.00
2023-11-07T07:07:31.569Z,11.01
2023-11-07T07:08:04.917Z,11.02
2023-11-07T07:08:37.548Z,11.03
2023-11-07T07:09:10.444Z,11.06
2023-11-07T07:09:42.970Z,11.08
2023-11-07T07:10:15.586Z,11.09
2023-11-07T07:10:48.131Z,11.10
2023-11-07T07:11:21.455Z,11.13
2023-11-07T07:11:54.093Z,11.15
2023-11-07T07:12:26.998Z,11.17
2023-11-07T07:12:59.548Z,11.19
2023-11-07T07:13:32.988Z,11.22
2023-11-07T07:14:05.599Z,11.28
2023-11-07T07:14:38.175Z,11.37